sensor_id;sensor_type;location;lat;lon;timestamp;temperature;humidity
17452;DHT22;8843;48.838;9.324;2024-03-22T00:01:55;13.40;90.00
17452;DHT22;8843;48.838;9.324;2024-03-22T00:04:22;13.40;90.00
17452;DHT22;8843;48.838;9.324;2024-03-22T00:06:49;13.30;89.90
17452;DHT22;8843;48.838;9.324;2024-03-22T00:09:17;13.30;90.00
17452;DHT22;8843;48.838;9.324;2024-03-22T00:11:44;13.30;90.00
17452;DHT22;8843;48.838;9.324;2024-03-22T00:14:11;13.30;90.00
17452;DHT22;8843;48.838;9.324;2024-03-22T00:16:40;13.30;90.00
17452;DHT22;8843;48.838;9.324;2024-03-22T00:19:06;13.30;90.00
17452;DHT22;8843;48.838;9.324;2024-03-22T00:21:33;13.30;90.00
17452;DHT22;8843;48.838;9.324;2024-03-22T00:23:59;13.30;90.00
17452;DHT22;8843;48.838;9.324;2024-03-22T00:26:29;13.30;90.00
17452;DHT22;8843;48.838;9.324;2024-03-22T00:28:54;13.30;90.00
17452;DHT22;8843;48.838;9.324;2024-03-22T00:31:23;13.30;90.00
17452;DHT22;8843;48.838;9.324;2024-03-22T00:33:51;13.30;90.00
17452;DHT22;8843;48.838;9.324;2024-03-22T00:36:19;13.30;90.00
17452;DHT22;8843;48.838;9.324;2024-03-22T00:38:47;13.30;90.00
17452;DHT22;8843;48.838;9.324;2024-03-22T00:41:14;13.30;90.00
17452;DHT22;8843;48.838;9.324;2024-03-22T00:43:41;13.20;90.00
17452;DHT22;8843;48.838;9.324;2024-03-22T00:46:08;13.20;90.00
17452;DHT22;8843;48.838;9.324;2024-03-22T00:48:34;13.20;90.00
17452;DHT22;8843;48.838;9.324;2024-03-22T00:51:02;13.20;90.00
17452;DHT22;8843;48.838;9.324;2024-03-22T00:53:28;13.20;90.00
17452;DHT22;8843;48.838;9.324;2024-03-22T00:55:56;13.20;90.00
17452;DHT22;8843;48.838;9.324;2024-03-22T00:58:25;13.20;90.00
17452;DHT22;8843;48.838;9.324;2024-03-22T01:00:53;13.20;90.00
17452;DHT22;8843;48.838;9.324;2024-03-22T01:03:20;13.20;90.10
17452;DHT22;8843;48.838;9.324;2024-03-22T01:05:47;13.20;90.00
17452;DHT22;8843;48.838;9.324;2024-03-22T01:08:12;13.20;90.10
17452;DHT22;8843;48.838;9.324;2024-03-22T01:10:40;13.20;90.00
17452;DHT22;8843;48.838;9.324;2024-03-22T01:13:06;13.20;90.10
17452;DHT22;8843;48.838;9.324;2024-03-22T01:15:33;13.20;90.00
17452;DHT22;8843;48.838;9.324;2024-03-22T01:18:01;13.20;90.00
17452;DHT22;8843;48.838;9.324;2024-03-22T01:20:28;13.20;90.00
17452;DHT22;8843;48.838;9.324;2024-03-22T01:22:53;13.10;90.00
17452;DHT22;8843;48.838;9.324;2024-03-22T01:25:20;13.20;90.10
17452;DHT22;8843;48.838;9.324;2024-03-22T01:27:46;13.10;90.00
17452;DHT22;8843;48.838;9.324;2024-03-22T01:30:14;13.20;90.00
17452;DHT22;8843;48.838;9.324;2024-03-22T01:32:40;13.10;90.00
17452;DHT22;8843;48.838;9.324;2024-03-22T01:35:10;13.10;90.00
17452;DHT22;8843;48.838;9.324;2024-03-22T01:37:36;13.10;90.00
17452;DHT22;8843;48.838;9.324;2024-03-22T01:40:05;13.10;90.10
17452;DHT22;8843;48.838;9.324;2024-03-22T01:42:31;13.10;90.00
17452;DHT22;8843;48.838;9.324;2024-03-22T01:44:59;13.10;90.00
17452;DHT22;8843;48.838;9.324;2024-03-22T01:47:25;13.10;90.00
17452;DHT22;8843;48.838;9.324;2024-03-22T01:49:55;13.10;90.00
17452;DHT22;8843;48.838;9.324;2024-03-22T01:52:23;13.10;90.10
17452;DHT22;8843;48.838;9.324;2024-03-22T01:54:50;13.10;90.10
17452;DHT22;8843;48.838;9.324;2024-03-22T01:57:18;13.10;90.00
17452;DHT22;8843;48.838;9.324;2024-03-22T01:59:46;13.10;90.00
17452;DHT22;8843;48.838;9.324;2024-03-22T02:02:13;13.10;90.10
17452;DHT22;8843;48.838;9.324;2024-03-22T02:04:42;13.10;90.00
17452;DHT22;8843;48.838;9.324;2024-03-22T02:07:08;13.10;90.10
17452;DHT22;8843;48.838;9.324;2024-03-22T02:09:37;13.00;90.00
17452;DHT22;8843;48.838;9.324;2024-03-22T02:12:03;13.00;90.10
17452;DHT22;8843;48.838;9.324;2024-03-22T02:14:30;13.00;90.10
17452;DHT22;8843;48.838;9.324;2024-03-22T02:16:56;13.00;90.10
17452;DHT22;8843;48.838;9.324;2024-03-22T02:19:23;13.00;90.10
17452;DHT22;8843;48.838;9.324;2024-03-22T02:21:51;13.00;90.10
17452;DHT22;8843;48.838;9.324;2024-03-22T02:24:19;13.00;90.10
17452;DHT22;8843;48.838;9.324;2024-03-22T02:26:45;13.00;90.10
17452;DHT22;8843;48.838;9.324;2024-03-22T02:29:13;13.00;90.10
17452;DHT22;8843;48.838;9.324;2024-03-22T02:31:39;13.00;90.10
17452;DHT22;8843;48.838;9.324;2024-03-22T02:34:06;12.90;90.20
17452;DHT22;8843;48.838;9.324;2024-03-22T02:36:32;12.90;90.10
17452;DHT22;8843;48.838;9.324;2024-03-22T02:38:58;12.90;90.10
17452;DHT22;8843;48.838;9.324;2024-03-22T02:41:26;12.90;90.10
17452;DHT22;8843;48.838;9.324;2024-03-22T02:43:54;12.90;90.10
17452;DHT22;8843;48.838;9.324;2024-03-22T02:46:20;12.90;90.50
17452;DHT22;8843;48.838;9.324;2024-03-22T02:48:47;12.90;90.10
17452;DHT22;8843;48.838;9.324;2024-03-22T02:51:13;12.90;90.20
17452;DHT22;8843;48.838;9.324;2024-03-22T02:53:42;12.90;90.20
17452;DHT22;8843;48.838;9.324;2024-03-22T02:56:08;12.90;90.20
17452;DHT22;8843;48.838;9.324;2024-03-22T02:58:37;12.90;90.20
17452;DHT22;8843;48.838;9.324;2024-03-22T03:01:03;12.90;90.50
17452;DHT22;8843;48.838;9.324;2024-03-22T03:03:31;12.90;90.20
17452;DHT22;8843;48.838;9.324;2024-03-22T03:05:57;12.80;90.10
17452;DHT22;8843;48.838;9.324;2024-03-22T03:08:25;12.90;90.20
17452;DHT22;8843;48.838;9.324;2024-03-22T03:10:51;12.90;90.20
17452;DHT22;8843;48.838;9.324;2024-03-22T03:13:19;12.90;90.20
17452;DHT22;8843;48.838;9.324;2024-03-22T03:15:46;12.80;90.10
17452;DHT22;8843;48.838;9.324;2024-03-22T03:18:13;12.80;90.10
17452;DHT22;8843;48.838;9.324;2024-03-22T03:20:39;12.80;90.10
17452;DHT22;8843;48.838;9.324;2024-03-22T03:23:06;12.80;90.20
17452;DHT22;8843;48.838;9.324;2024-03-22T03:25:32;12.80;90.20
17452;DHT22;8843;48.838;9.324;2024-03-22T03:27:59;12.80;90.20
17452;DHT22;8843;48.838;9.324;2024-03-22T03:30:25;12.80;90.50
17452;DHT22;8843;48.838;9.324;2024-03-22T03:32:54;12.80;90.20
17452;DHT22;8843;48.838;9.324;2024-03-22T03:35:20;12.80;90.20
17452;DHT22;8843;48.838;9.324;2024-03-22T03:37:47;12.80;90.20
17452;DHT22;8843;48.838;9.324;2024-03-22T03:40:13;12.80;90.20
17452;DHT22;8843;48.838;9.324;2024-03-22T03:42:40;12.80;90.20
17452;DHT22;8843;48.838;9.324;2024-03-22T03:45:08;12.80;90.20
17452;DHT22;8843;48.838;9.324;2024-03-22T03:47:35;12.80;90.20
17452;DHT22;8843;48.838;9.324;2024-03-22T03:50:03;12.80;90.20
17452;DHT22;8843;48.838;9.324;2024-03-22T03:52:31;12.80;90.20
17452;DHT22;8843;48.838;9.324;2024-03-22T03:54:57;12.80;90.20
17452;DHT22;8843;48.838;9.324;2024-03-22T03:57:24;12.80;90.20
17452;DHT22;8843;48.838;9.324;2024-03-22T03:59:50;12.70;90.10
17452;DHT22;8843;48.838;9.324;2024-03-22T04:02:18;12.70;90.20
17452;DHT22;8843;48.838;9.324;2024-03-22T04:04:44;12.70;90.20
17452;DHT22;8843;48.838;9.324;2024-03-22T04:07:13;12.70;90.20
17452;DHT22;8843;48.838;9.324;2024-03-22T04:09:39;12.70;90.20
17452;DHT22;8843;48.838;9.324;2024-03-22T04:12:06;12.70;90.20
17452;DHT22;8843;48.838;9.324;2024-03-22T04:14:33;12.70;90.20
17452;DHT22;8843;48.838;9.324;2024-03-22T04:17:00;12.70;90.20
17452;DHT22;8843;48.838;9.324;2024-03-22T04:19:26;12.70;90.20
17452;DHT22;8843;48.838;9.324;2024-03-22T04:21:53;12.70;90.20
17452;DHT22;8843;48.838;9.324;2024-03-22T04:24:21;12.70;90.20
17452;DHT22;8843;48.838;9.324;2024-03-22T04:26:49;12.70;90.10
17452;DHT22;8843;48.838;9.324;2024-03-22T04:29:14;12.70;90.20
17452;DHT22;8843;48.838;9.324;2024-03-22T04:31:43;12.70;90.20
17452;DHT22;8843;48.838;9.324;2024-03-22T04:34:10;12.70;90.20
17452;DHT22;8843;48.838;9.324;2024-03-22T04:36:37;12.70;90.10
17452;DHT22;8843;48.838;9.324;2024-03-22T04:39:03;12.70;90.10
17452;DHT22;8843;48.838;9.324;2024-03-22T04:41:31;12.70;90.20
17452;DHT22;8843;48.838;9.324;2024-03-22T04:43:58;12.70;90.20
17452;DHT22;8843;48.838;9.324;2024-03-22T04:46:25;12.70;90.20
17452;DHT22;8843;48.838;9.324;2024-03-22T04:48:52;12.70;90.10
17452;DHT22;8843;48.838;9.324;2024-03-22T04:51:19;12.70;90.20
17452;DHT22;8843;48.838;9.324;2024-03-22T04:53:46;12.60;90.10
17452;DHT22;8843;48.838;9.324;2024-03-22T04:56:13;12.60;90.10
17452;DHT22;8843;48.838;9.324;2024-03-22T04:58:40;12.60;90.10
17452;DHT22;8843;48.838;9.324;2024-03-22T05:01:08;12.60;90.10
17452;DHT22;8843;48.838;9.324;2024-03-22T05:03:35;12.60;90.10
17452;DHT22;8843;48.838;9.324;2024-03-22T05:06:02;12.80;91.50
17452;DHT22;8843;48.838;9.324;2024-03-22T05:08:29;12.80;90.30
17452;DHT22;8843;48.838;9.324;2024-03-22T05:10:56;12.70;90.20
17452;DHT22;8843;48.838;9.324;2024-03-22T05:13:23;12.70;90.20
17452;DHT22;8843;48.838;9.324;2024-03-22T05:15:52;12.70;90.20
17452;DHT22;8843;48.838;9.324;2024-03-22T05:18:18;12.70;90.20
17452;DHT22;8843;48.838;9.324;2024-03-22T05:20:45;12.60;90.20
17452;DHT22;8843;48.838;9.324;2024-03-22T05:23:12;12.60;90.20
17452;DHT22;8843;48.838;9.324;2024-03-22T05:25:42;12.60;90.20
17452;DHT22;8843;48.838;9.324;2024-03-22T05:28:08;12.60;90.20
17452;DHT22;8843;48.838;9.324;2024-03-22T05:30:35;12.60;90.20
17452;DHT22;8843;48.838;9.324;2024-03-22T05:33:03;12.60;90.20
17452;DHT22;8843;48.838;9.324;2024-03-22T05:35:30;12.60;90.20
17452;DHT22;8843;48.838;9.324;2024-03-22T05:37:56;12.60;90.20
17452;DHT22;8843;48.838;9.324;2024-03-22T05:40:23;12.60;90.80
17452;DHT22;8843;48.838;9.324;2024-03-22T05:42:50;12.70;90.80
17452;DHT22;8843;48.838;9.324;2024-03-22T05:45:17;12.70;90.30
17452;DHT22;8843;48.838;9.324;2024-03-22T05:47:43;12.70;90.20
17452;DHT22;8843;48.838;9.324;2024-03-22T05:50:12;12.60;90.20
17452;DHT22;8843;48.838;9.324;2024-03-22T05:52:40;12.60;90.20
17452;DHT22;8843;48.838;9.324;2024-03-22T05:55:07;12.60;90.30
17452;DHT22;8843;48.838;9.324;2024-03-22T05:57:33;12.60;90.30
17452;DHT22;8843;48.838;9.324;2024-03-22T06:00:00;12.50;90.30
17452;DHT22;8843;48.838;9.324;2024-03-22T06:02:29;12.50;90.30
17452;DHT22;8843;48.838;9.324;2024-03-22T06:04:56;12.50;90.30
17452;DHT22;8843;48.838;9.324;2024-03-22T06:07:25;12.50;90.30
17452;DHT22;8843;48.838;9.324;2024-03-22T06:09:52;12.40;86.10
17452;DHT22;8843;48.838;9.324;2024-03-22T06:12:18;12.60;90.10
17452;DHT22;8843;48.838;9.324;2024-03-22T06:14:47;12.30;87.60
17452;DHT22;8843;48.838;9.324;2024-03-22T06:17:16;12.10;87.10
17452;DHT22;8843;48.838;9.324;2024-03-22T06:19:43;12.00;88.00
17452;DHT22;8843;48.838;9.324;2024-03-22T06:22:09;12.10;88.10
17452;DHT22;8843;48.838;9.324;2024-03-22T06:24:38;12.20;88.10
17452;DHT22;8843;48.838;9.324;2024-03-22T06:27:05;12.20;87.90
17452;DHT22;8843;48.838;9.324;2024-03-22T06:29:33;12.20;87.70
17452;DHT22;8843;48.838;9.324;2024-03-22T06:31:59;12.30;85.30
17452;DHT22;8843;48.838;9.324;2024-03-22T06:34:26;12.60;83.00
17452;DHT22;8843;48.838;9.324;2024-03-22T06:36:52;12.10;83.80
17452;DHT22;8843;48.838;9.324;2024-03-22T06:39:19;12.50;86.50
17452;DHT22;8843;48.838;9.324;2024-03-22T06:41:47;12.50;86.50
17452;DHT22;8843;48.838;9.324;2024-03-22T06:44:14;12.20;82.40
17452;DHT22;8843;48.838;9.324;2024-03-22T06:46:40;12.00;87.30
17452;DHT22;8843;48.838;9.324;2024-03-22T06:49:07;12.00;87.50
17452;DHT22;8843;48.838;9.324;2024-03-22T06:51:33;12.10;87.50
17452;DHT22;8843;48.838;9.324;2024-03-22T06:54:00;12.10;87.20
17452;DHT22;8843;48.838;9.324;2024-03-22T06:56:26;12.10;87.10
17452;DHT22;8843;48.838;9.324;2024-03-22T06:58:56;12.20;87.40
17452;DHT22;8843;48.838;9.324;2024-03-22T07:01:22;12.20;87.30
17452;DHT22;8843;48.838;9.324;2024-03-22T07:03:50;12.20;87.30
17452;DHT22;8843;48.838;9.324;2024-03-22T07:06:16;12.20;87.40
17452;DHT22;8843;48.838;9.324;2024-03-22T07:08:43;12.00;87.00
17452;DHT22;8843;48.838;9.324;2024-03-22T07:11:09;12.10;87.40
17452;DHT22;8843;48.838;9.324;2024-03-22T07:13:36;12.10;87.70
17452;DHT22;8843;48.838;9.324;2024-03-22T07:16:04;12.10;87.50
17452;DHT22;8843;48.838;9.324;2024-03-22T07:18:31;12.20;87.90
17452;DHT22;8843;48.838;9.324;2024-03-22T07:20:57;11.90;86.30
17452;DHT22;8843;48.838;9.324;2024-03-22T07:23:27;12.00;87.90
17452;DHT22;8843;48.838;9.324;2024-03-22T07:25:52;12.10;88.00
17452;DHT22;8843;48.838;9.324;2024-03-22T07:28:20;12.10;87.90
17452;DHT22;8843;48.838;9.324;2024-03-22T07:30:47;12.10;88.70
17452;DHT22;8843;48.838;9.324;2024-03-22T07:33:15;12.20;88.90
17452;DHT22;8843;48.838;9.324;2024-03-22T07:35:43;12.10;88.10
17452;DHT22;8843;48.838;9.324;2024-03-22T07:38:10;12.20;88.30
17452;DHT22;8843;48.838;9.324;2024-03-22T07:40:36;12.20;88.30
17452;DHT22;8843;48.838;9.324;2024-03-22T07:43:03;12.20;88.30
17452;DHT22;8843;48.838;9.324;2024-03-22T07:45:33;12.20;88.60
17452;DHT22;8843;48.838;9.324;2024-03-22T07:48:02;12.20;88.60
17452;DHT22;8843;48.838;9.324;2024-03-22T07:50:30;12.20;88.60
17452;DHT22;8843;48.838;9.324;2024-03-22T07:52:57;12.20;88.80
17452;DHT22;8843;48.838;9.324;2024-03-22T07:55:23;12.20;88.70
17452;DHT22;8843;48.838;9.324;2024-03-22T07:57:50;12.20;88.90
17452;DHT22;8843;48.838;9.324;2024-03-22T08:00:17;12.20;89.50
17452;DHT22;8843;48.838;9.324;2024-03-22T08:02:45;12.10;89.00
17452;DHT22;8843;48.838;9.324;2024-03-22T08:05:10;12.20;89.20
17452;DHT22;8843;48.838;9.324;2024-03-22T08:07:39;12.20;89.20
17452;DHT22;8843;48.838;9.324;2024-03-22T08:10:06;12.20;89.40
17452;DHT22;8843;48.838;9.324;2024-03-22T08:12:34;12.20;89.50
17452;DHT22;8843;48.838;9.324;2024-03-22T08:15:00;12.20;89.50
17452;DHT22;8843;48.838;9.324;2024-03-22T08:17:27;12.20;89.90
17452;DHT22;8843;48.838;9.324;2024-03-22T08:19:53;12.10;89.90
17452;DHT22;8843;48.838;9.324;2024-03-22T08:22:20;12.20;89.70
17452;DHT22;8843;48.838;9.324;2024-03-22T08:24:48;12.20;89.80
17452;DHT22;8843;48.838;9.324;2024-03-22T08:27:16;12.30;90.00
17452;DHT22;8843;48.838;9.324;2024-03-22T08:29:42;12.20;89.90
17452;DHT22;8843;48.838;9.324;2024-03-22T08:32:09;12.20;89.50
17452;DHT22;8843;48.838;9.324;2024-03-22T08:34:36;12.20;89.60
17452;DHT22;8843;48.838;9.324;2024-03-22T08:37:03;12.30;89.70
17452;DHT22;8843;48.838;9.324;2024-03-22T08:39:29;12.20;89.60
17452;DHT22;8843;48.838;9.324;2024-03-22T08:41:58;12.20;90.00
17452;DHT22;8843;48.838;9.324;2024-03-22T08:44:24;12.30;90.00
17452;DHT22;8843;48.838;9.324;2024-03-22T08:46:52;12.30;90.00
17452;DHT22;8843;48.838;9.324;2024-03-22T08:49:18;12.30;90.00
17452;DHT22;8843;48.838;9.324;2024-03-22T08:51:45;12.30;90.00
17452;DHT22;8843;48.838;9.324;2024-03-22T08:54:13;12.30;90.00
17452;DHT22;8843;48.838;9.324;2024-03-22T08:56:40;12.30;90.30
17452;DHT22;8843;48.838;9.324;2024-03-22T08:59:08;12.40;90.30
17452;DHT22;8843;48.838;9.324;2024-03-22T09:01:36;12.40;90.50
17452;DHT22;8843;48.838;9.324;2024-03-22T09:04:02;12.40;90.30
17452;DHT22;8843;48.838;9.324;2024-03-22T09:06:29;12.50;90.30
17452;DHT22;8843;48.838;9.324;2024-03-22T09:08:55;12.50;90.30
17452;DHT22;8843;48.838;9.324;2024-03-22T09:11:23;12.50;90.40
17452;DHT22;8843;48.838;9.324;2024-03-22T09:13:51;12.50;90.50
17452;DHT22;8843;48.838;9.324;2024-03-22T09:16:23;12.60;90.60
17452;DHT22;8843;48.838;9.324;2024-03-22T09:18:49;12.60;90.60
17452;DHT22;8843;48.838;9.324;2024-03-22T09:21:16;12.60;90.50
17452;DHT22;8843;48.838;9.324;2024-03-22T09:23:42;12.70;90.60
17452;DHT22;8843;48.838;9.324;2024-03-22T09:26:09;12.70;90.60
17452;DHT22;8843;48.838;9.324;2024-03-22T09:28:35;12.80;90.50
17452;DHT22;8843;48.838;9.324;2024-03-22T09:31:06;12.80;90.50
17452;DHT22;8843;48.838;9.324;2024-03-22T09:33:35;12.80;90.70
17452;DHT22;8843;48.838;9.324;2024-03-22T09:36:02;12.90;90.80
17452;DHT22;8843;48.838;9.324;2024-03-22T09:38:29;12.90;91.00
17452;DHT22;8843;48.838;9.324;2024-03-22T09:40:55;13.00;90.90
17452;DHT22;8843;48.838;9.324;2024-03-22T09:43:23;13.10;91.00
17452;DHT22;8843;48.838;9.324;2024-03-22T09:45:49;13.20;91.80
17452;DHT22;8843;48.838;9.324;2024-03-22T09:48:18;13.20;91.50
17452;DHT22;8843;48.838;9.324;2024-03-22T09:50:46;13.40;91.60
17452;DHT22;8843;48.838;9.324;2024-03-22T09:53:14;13.50;91.70
17452;DHT22;8843;48.838;9.324;2024-03-22T09:55:43;13.60;91.90
17452;DHT22;8843;48.838;9.324;2024-03-22T09:58:10;13.70;91.70
17452;DHT22;8843;48.838;9.324;2024-03-22T10:00:37;13.80;91.90
17452;DHT22;8843;48.838;9.324;2024-03-22T10:03:04;14.00;91.80
17452;DHT22;8843;48.838;9.324;2024-03-22T10:05:31;14.20;91.00
17452;DHT22;8843;48.838;9.324;2024-03-22T10:07:59;14.30;90.90
17452;DHT22;8843;48.838;9.324;2024-03-22T10:10:25;14.40;90.90
17452;DHT22;8843;48.838;9.324;2024-03-22T10:12:52;14.60;90.80
17452;DHT22;8843;48.838;9.324;2024-03-22T10:15:19;14.70;90.60
17452;DHT22;8843;48.838;9.324;2024-03-22T10:17:46;14.80;90.40
17452;DHT22;8843;48.838;9.324;2024-03-22T10:20:13;14.90;90.00
17452;DHT22;8843;48.838;9.324;2024-03-22T10:22:42;15.00;88.60
17452;DHT22;8843;48.838;9.324;2024-03-22T10:25:10;15.20;87.90
17452;DHT22;8843;48.838;9.324;2024-03-22T10:27:38;15.20;87.30
17452;DHT22;8843;48.838;9.324;2024-03-22T10:30:08;15.20;85.00
17452;DHT22;8843;48.838;9.324;2024-03-22T10:32:36;15.30;84.90
17452;DHT22;8843;48.838;9.324;2024-03-22T10:35:02;15.30;85.50
17452;DHT22;8843;48.838;9.324;2024-03-22T10:37:32;15.40;85.60
17452;DHT22;8843;48.838;9.324;2024-03-22T10:39:59;15.50;86.30
17452;DHT22;8843;48.838;9.324;2024-03-22T10:42:30;15.50;86.10
17452;DHT22;8843;48.838;9.324;2024-03-22T10:44:56;15.60;86.40
17452;DHT22;8843;48.838;9.324;2024-03-22T10:47:26;15.70;85.70
17452;DHT22;8843;48.838;9.324;2024-03-22T10:50:01;15.70;85.10
17452;DHT22;8843;48.838;9.324;2024-03-22T10:52:30;15.90;83.70
17452;DHT22;8843;48.838;9.324;2024-03-22T10:54:59;15.90;82.80
17452;DHT22;8843;48.838;9.324;2024-03-22T10:57:26;15.90;83.50
17452;DHT22;8843;48.838;9.324;2024-03-22T10:59:56;15.90;83.70
17452;DHT22;8843;48.838;9.324;2024-03-22T11:02:24;16.00;85.00
17452;DHT22;8843;48.838;9.324;2024-03-22T11:04:58;16.10;84.80
17452;DHT22;8843;48.838;9.324;2024-03-22T11:07:29;16.20;84.90
17452;DHT22;8843;48.838;9.324;2024-03-22T11:09:56;16.40;83.50
17452;DHT22;8843;48.838;9.324;2024-03-22T11:12:25;16.60;84.60
17452;DHT22;8843;48.838;9.324;2024-03-22T11:14:53;16.70;84.20
17452;DHT22;8843;48.838;9.324;2024-03-22T11:17:20;16.90;82.90
17452;DHT22;8843;48.838;9.324;2024-03-22T11:19:50;17.00;81.20
17452;DHT22;8843;48.838;9.324;2024-03-22T11:22:17;17.00;81.20
17452;DHT22;8843;48.838;9.324;2024-03-22T11:24:44;17.10;79.40
17452;DHT22;8843;48.838;9.324;2024-03-22T11:27:10;17.20;78.10
17452;DHT22;8843;48.838;9.324;2024-03-22T11:29:38;17.40;73.20
17452;DHT22;8843;48.838;9.324;2024-03-22T11:32:07;18.00;72.20
17452;DHT22;8843;48.838;9.324;2024-03-22T11:34:37;17.90;68.70
17452;DHT22;8843;48.838;9.324;2024-03-22T11:37:04;17.80;69.10
17452;DHT22;8843;48.838;9.324;2024-03-22T11:39:32;17.90;67.40
17452;DHT22;8843;48.838;9.324;2024-03-22T11:42:01;17.60;71.10
17452;DHT22;8843;48.838;9.324;2024-03-22T11:44:28;17.10;76.40
17452;DHT22;8843;48.838;9.324;2024-03-22T11:46:54;16.90;77.10
17452;DHT22;8843;48.838;9.324;2024-03-22T11:49:24;16.30;77.80
17452;DHT22;8843;48.838;9.324;2024-03-22T11:51:53;16.40;79.20
17452;DHT22;8843;48.838;9.324;2024-03-22T11:54:21;16.40;79.10
17452;DHT22;8843;48.838;9.324;2024-03-22T11:56:47;16.70;80.30
17452;DHT22;8843;48.838;9.324;2024-03-22T11:59:14;17.00;80.00
17452;DHT22;8843;48.838;9.324;2024-03-22T12:01:42;17.10;79.10
17452;DHT22;8843;48.838;9.324;2024-03-22T12:04:09;17.20;78.70
17452;DHT22;8843;48.838;9.324;2024-03-22T12:06:41;17.40;77.50
17452;DHT22;8843;48.838;9.324;2024-03-22T12:09:09;17.40;77.30
17452;DHT22;8843;48.838;9.324;2024-03-22T12:11:38;17.60;75.80
17452;DHT22;8843;48.838;9.324;2024-03-22T12:14:05;17.60;76.30
17452;DHT22;8843;48.838;9.324;2024-03-22T12:16:32;17.60;76.30
17452;DHT22;8843;48.838;9.324;2024-03-22T12:18:59;17.70;75.30
17452;DHT22;8843;48.838;9.324;2024-03-22T12:21:26;17.80;74.90
17452;DHT22;8843;48.838;9.324;2024-03-22T12:23:52;17.80;73.30
17452;DHT22;8843;48.838;9.324;2024-03-22T12:26:21;17.90;73.10
17452;DHT22;8843;48.838;9.324;2024-03-22T12:28:47;17.90;72.60
17452;DHT22;8843;48.838;9.324;2024-03-22T12:31:17;17.80;72.30
17452;DHT22;8843;48.838;9.324;2024-03-22T12:33:44;17.80;72.00
17452;DHT22;8843;48.838;9.324;2024-03-22T12:36:11;17.70;72.40
17452;DHT22;8843;48.838;9.324;2024-03-22T12:38:37;17.70;71.90
17452;DHT22;8843;48.838;9.324;2024-03-22T12:41:04;17.60;71.70
17452;DHT22;8843;48.838;9.324;2024-03-22T12:43:33;17.60;72.00
17452;DHT22;8843;48.838;9.324;2024-03-22T12:46:00;17.60;72.60
17452;DHT22;8843;48.838;9.324;2024-03-22T12:48:26;17.50;72.20
17452;DHT22;8843;48.838;9.324;2024-03-22T12:50:53;17.20;70.40
17452;DHT22;8843;48.838;9.324;2024-03-22T12:53:19;17.30;72.20
17452;DHT22;8843;48.838;9.324;2024-03-22T12:55:46;17.20;72.10
17452;DHT22;8843;48.838;9.324;2024-03-22T12:58:12;17.20;71.40
17452;DHT22;8843;48.838;9.324;2024-03-22T13:00:41;17.20;72.00
17452;DHT22;8843;48.838;9.324;2024-03-22T13:03:07;17.10;73.10
17452;DHT22;8843;48.838;9.324;2024-03-22T13:05:35;17.10;71.90
17452;DHT22;8843;48.838;9.324;2024-03-22T13:08:01;17.10;71.90
17452;DHT22;8843;48.838;9.324;2024-03-22T13:10:29;17.20;72.10
17452;DHT22;8843;48.838;9.324;2024-03-22T13:12:55;17.10;72.60
17452;DHT22;8843;48.838;9.324;2024-03-22T13:15:24;17.10;72.40
17452;DHT22;8843;48.838;9.324;2024-03-22T13:17:52;17.10;72.20
17452;DHT22;8843;48.838;9.324;2024-03-22T13:20:21;17.00;72.20
17452;DHT22;8843;48.838;9.324;2024-03-22T13:22:47;17.10;71.80
17452;DHT22;8843;48.838;9.324;2024-03-22T13:25:14;17.00;72.30
17452;DHT22;8843;48.838;9.324;2024-03-22T13:27:40;17.10;72.90
17452;DHT22;8843;48.838;9.324;2024-03-22T13:30:08;17.10;72.30
17452;DHT22;8843;48.838;9.324;2024-03-22T13:32:35;17.10;73.20
17452;DHT22;8843;48.838;9.324;2024-03-22T13:35:05;17.10;73.00
17452;DHT22;8843;48.838;9.324;2024-03-22T13:37:31;17.10;72.90
17452;DHT22;8843;48.838;9.324;2024-03-22T13:39:59;17.00;72.90
17452;DHT22;8843;48.838;9.324;2024-03-22T13:42:25;17.00;73.40
17452;DHT22;8843;48.838;9.324;2024-03-22T13:44:52;16.90;73.50
17452;DHT22;8843;48.838;9.324;2024-03-22T13:47:19;17.00;73.10
17452;DHT22;8843;48.838;9.324;2024-03-22T13:49:46;17.00;73.00
17452;DHT22;8843;48.838;9.324;2024-03-22T13:52:14;16.90;73.00
17452;DHT22;8843;48.838;9.324;2024-03-22T13:54:41;17.00;70.30
17452;DHT22;8843;48.838;9.324;2024-03-22T13:57:07;17.10;68.30
17452;DHT22;8843;48.838;9.324;2024-03-22T13:59:34;17.10;73.00
17452;DHT22;8843;48.838;9.324;2024-03-22T14:02:00;16.80;74.50
17452;DHT22;8843;48.838;9.324;2024-03-22T14:04:30;16.90;71.00
17452;DHT22;8843;48.838;9.324;2024-03-22T14:06:56;16.80;74.90
17452;DHT22;8843;48.838;9.324;2024-03-22T14:09:24;16.70;75.00
17452;DHT22;8843;48.838;9.324;2024-03-22T14:11:51;16.70;74.10
17452;DHT22;8843;48.838;9.324;2024-03-22T14:14:19;16.60;73.70
17452;DHT22;8843;48.838;9.324;2024-03-22T14:16:45;16.60;74.50
17452;DHT22;8843;48.838;9.324;2024-03-22T14:19:12;16.60;75.00
17452;DHT22;8843;48.838;9.324;2024-03-22T14:21:38;16.50;75.50
17452;DHT22;8843;48.838;9.324;2024-03-22T14:24:05;16.50;75.30
17452;DHT22;8843;48.838;9.324;2024-03-22T14:26:33;16.50;74.30
17452;DHT22;8843;48.838;9.324;2024-03-22T14:29:00;16.50;74.40
17452;DHT22;8843;48.838;9.324;2024-03-22T14:31:27;16.60;73.80
17452;DHT22;8843;48.838;9.324;2024-03-22T14:33:54;16.70;75.00
17452;DHT22;8843;48.838;9.324;2024-03-22T14:36:20;16.70;73.80
17452;DHT22;8843;48.838;9.324;2024-03-22T14:38:48;16.60;75.40
17452;DHT22;8843;48.838;9.324;2024-03-22T14:41:14;16.60;74.10
17452;DHT22;8843;48.838;9.324;2024-03-22T14:43:43;16.60;74.10
17452;DHT22;8843;48.838;9.324;2024-03-22T14:46:11;16.60;74.30
17452;DHT22;8843;48.838;9.324;2024-03-22T14:48:38;16.50;74.80
17452;DHT22;8843;48.838;9.324;2024-03-22T14:51:04;16.50;74.50
17452;DHT22;8843;48.838;9.324;2024-03-22T14:53:32;16.50;74.60
17452;DHT22;8843;48.838;9.324;2024-03-22T14:55:59;16.50;74.30
17452;DHT22;8843;48.838;9.324;2024-03-22T14:58:30;16.40;75.50
17452;DHT22;8843;48.838;9.324;2024-03-22T15:00:58;16.40;74.60
17452;DHT22;8843;48.838;9.324;2024-03-22T15:03:26;16.40;74.50
17452;DHT22;8843;48.838;9.324;2024-03-22T15:05:54;16.30;74.30
17452;DHT22;8843;48.838;9.324;2024-03-22T15:08:23;16.30;74.20
17452;DHT22;8843;48.838;9.324;2024-03-22T15:10:49;16.20;72.20
17452;DHT22;8843;48.838;9.324;2024-03-22T15:13:17;16.20;71.00
17452;DHT22;8843;48.838;9.324;2024-03-22T15:15:52;16.20;70.90
17452;DHT22;8843;48.838;9.324;2024-03-22T15:18:21;16.20;70.80
17452;DHT22;8843;48.838;9.324;2024-03-22T15:20:48;16.20;70.20
17452;DHT22;8843;48.838;9.324;2024-03-22T15:23:17;16.10;70.10
17452;DHT22;8843;48.838;9.324;2024-03-22T15:25:44;16.10;69.50
17452;DHT22;8843;48.838;9.324;2024-03-22T15:28:12;16.10;69.20
17452;DHT22;8843;48.838;9.324;2024-03-22T15:30:39;16.10;69.60
17452;DHT22;8843;48.838;9.324;2024-03-22T15:33:07;16.10;67.40
17452;DHT22;8843;48.838;9.324;2024-03-22T15:35:36;16.20;71.70
17452;DHT22;8843;48.838;9.324;2024-03-22T15:38:04;16.20;69.40
17452;DHT22;8843;48.838;9.324;2024-03-22T15:40:30;16.10;69.50
17452;DHT22;8843;48.838;9.324;2024-03-22T15:42:57;16.00;69.40
17452;DHT22;8843;48.838;9.324;2024-03-22T15:45:24;16.00;69.60